Time;durP1;ratioP1;P1;durP2;ratioP2;P2;SDS_P1;SDS_P2;PMS_P1;PMS_P2;Temp;Humidity;BMP_temperature;BMP_pressure;BME280_temperature;BME280_humidity;BME280_pressure;Samples;Min_cycle;Max_cycle;Signal;HPM_P1;HPM_P2
2021/10/27 00:00:06;;;;;;;1.88;1.52;;;14.30;78.50;;;;;;5114733;27;20039;-60
2021/10/27 00:02:32;;;;;;;2.85;2.08;;;14.20;78.40;;;;;;5114471;27;20062;-59
2021/10/27 00:04:58;;;;;;;1.40;1.30;;;14.30;78.50;;;;;;5117712;27;20035;-64
2021/10/27 00:07:24;;;;;;;1.73;1.40;;;14.30;78.50;;;;;;5134203;27;20073;-63
2021/10/27 00:09:50;;;;;;;1.70;1.33;;;14.30;78.50;;;;;;5132897;27;20134;-60
2021/10/27 00:12:16;;;;;;;1.42;1.33;;;14.30;78.50;;;;;;5128697;27;20067;-61
2021/10/27 00:14:43;;;;;;;1.40;1.30;;;14.30;78.50;;;;;;5113755;28;20054;-59
2021/10/27 00:17:09;;;;;;;1.83;1.45;;;14.30;78.40;;;;;;5118595;27;20150;-58
2021/10/27 00:19:35;;;;;;;1.83;1.40;;;14.30;78.40;;;;;;5132952;27;20087;-62
2021/10/27 00:22:00;;;;;;;1.48;1.30;;;14.30;78.40;;;;;;5130350;27;20051;-64
2021/10/27 00:24:26;;;;;;;2.28;1.92;;;14.30;78.40;;;;;;5113951;27;20051;-64
2021/10/27 00:26:52;;;;;;;1.95;1.50;;;14.30;78.50;;;;;;5113830;28;20044;-64
2021/10/27 00:29:18;;;;;;;1.25;1.15;;;14.30;78.40;;;;;;5114745;27;20108;-62
2021/10/27 00:31:43;;;;;;;1.63;1.40;;;14.30;78.40;;;;;;5113160;27;20138;-65
2021/10/27 00:34:09;;;;;;;2.72;2.00;;;14.30;78.50;;;;;;5114042;27;20054;-62
2021/10/27 00:36:35;;;;;;;1.85;1.60;;;14.30;78.50;;;;;;5132499;27;20043;-63
2021/10/27 00:39:01;;;;;;;3.22;1.90;;;14.30;78.50;;;;;;5134419;27;20047;-62
2021/10/27 00:41:26;;;;;;;1.63;1.20;;;14.30;78.50;;;;;;5133056;27;20039;-62
2021/10/27 00:43:52;;;;;;;3.85;2.40;;;14.20;78.40;;;;;;5134052;27;20039;-60
2021/10/27 00:46:21;;;;;;;2.25;1.95;;;14.30;78.50;;;;;;5133817;27;20121;-64
2021/10/27 00:48:48;;;;;;;1.42;1.33;;;14.30;78.50;;;;;;5130502;27;20036;-64
2021/10/27 00:51:15;;;;;;;2.28;1.30;;;14.30;78.50;;;;;;5114413;27;20043;-60
2021/10/27 00:53:42;;;;;;;1.38;1.27;;;14.40;78.50;;;;;;5121663;27;20051;-64
2021/10/27 00:56:09;;;;;;;1.50;1.20;;;14.30;78.40;;;;;;5113398;28;20040;-63
2021/10/27 00:58:37;;;;;;;1.80;1.70;;;14.30;78.40;;;;;;5117741;27;20036;-63
2021/10/27 01:01:04;;;;;;;2.38;2.00;;;14.30;78.50;;;;;;5115304;27;20505;-62
2021/10/27 01:03:31;;;;;;;2.35;2.03;;;14.30;78.50;;;;;;5112842;28;20039;-62
2021/10/27 01:05:56;;;;;;;1.40;1.20;;;14.30;78.50;;;;;;5113258;27;20136;-62
2021/10/27 01:08:22;;;;;;;1.92;1.73;;;14.40;78.50;;;;;;5133923;27;20123;-59
2021/10/27 01:10:48;;;;;;;2.38;1.90;;;14.30;78.50;;;;;;5133762;27;20421;-64
2021/10/27 01:13:14;;;;;;;1.85;1.45;;;14.40;78.80;;;;;;5115014;27;20127;-62
2021/10/27 01:15:41;;;;;;;1.63;1.42;;;14.30;78.50;;;;;;5112982;28;20483;-64
2021/10/27 01:18:08;;;;;;;3.55;2.58;;;14.30;78.50;;;;;;5113890;27;20050;-62
2021/10/27 01:20:34;;;;;;;1.90;1.58;;;14.40;78.60;;;;;;5112644;28;20135;-63
2021/10/27 01:23:00;;;;;;;1.80;1.58;;;14.30;78.50;;;;;;5115337;27;20169;-65
2021/10/27 01:25:26;;;;;;;1.65;1.55;;;14.30;78.50;;;;;;5125450;27;20042;-61
2021/10/27 01:27:53;;;;;;;2.40;2.00;;;14.40;78.50;;;;;;5122406;27;20447;-64
2021/10/27 01:30:22;;;;;;;1.70;1.52;;;14.30;78.60;;;;;;5109652;27;20527;-63
2021/10/27 01:32:49;;;;;;;1.30;1.20;;;14.40;78.60;;;;;;5123446;28;20039;-64
2021/10/27 01:35:16;;;;;;;1.88;1.55;;;14.40;78.60;;;;;;5118110;28;20047;-64
2021/10/27 01:37:43;;;;;;;1.83;1.60;;;14.40;78.50;;;;;;5123894;28;20126;-62
2021/10/27 01:40:15;;;;;;;3.42;1.88;;;14.30;78.50;;;;;;5112852;28;20047;-60
2021/10/27 01:42:41;;;;;;;2.63;1.92;;;14.40;78.60;;;;;;5122101;28;20046;-63
2021/10/27 01:45:09;;;;;;;4.90;2.22;;;14.40;78.60;;;;;;5131085;28;20135;-59
2021/10/27 01:47:35;;;;;;;5.38;2.50;;;14.40;78.60;;;;;;5132610;28;20046;-61
2021/10/27 01:50:01;;;;;;;1.85;1.55;;;14.40;78.70;;;;;;5133096;28;20070;-61
2021/10/27 01:52:27;;;;;;;2.22;2.03;;;14.40;78.60;;;;;;5132698;28;20395;-62
2021/10/27 01:54:52;;;;;;;2.95;2.33;;;14.40;78.60;;;;;;5116824;28;20039;-62
2021/10/27 01:57:19;;;;;;;2.15;1.73;;;14.40;78.60;;;;;;5098481;28;20553;-62
2021/10/27 01:59:45;;;;;;;2.10;1.50;;;14.40;78.60;;;;;;5115959;28;20159;-61
2021/10/27 02:02:10;;;;;;;2.03;1.60;;;14.40;78.50;;;;;;5113271;28;20164;-61
2021/10/27 02:04:36;;;;;;;1.85;1.75;;;14.40;78.60;;;;;;5127212;28;20539;-62
2021/10/27 02:07:02;;;;;;;2.05;1.40;;;14.30;78.50;;;;;;5132801;28;20035;-62
2021/10/27 02:09:29;;;;;;;2.00;1.42;;;14.40;78.50;;;;;;5130707;28;20035;-64
2021/10/27 02:11:55;;;;;;;2.42;1.70;;;14.40;78.50;;;;;;5130493;28;20047;-64
2021/10/27 02:14:21;;;;;;;1.55;1.42;;;14.40;78.50;;;;;;5114724;28;20055;-62
2021/10/27 02:16:46;;;;;;;1.80;1.50;;;14.40;78.50;;;;;;5110218;28;20118;-63
2021/10/27 02:19:12;;;;;;;2.03;1.83;;;14.40;78.50;;;;;;5112187;28;20096;-63
2021/10/27 02:21:38;;;;;;;3.72;1.85;;;14.40;78.50;;;;;;5112081;28;20073;-61
2021/10/27 02:24:04;;;;;;;1.75;1.50;;;14.40;78.50;;;;;;5112801;28;20407;-63
2021/10/27 02:26:30;;;;;;;3.78;1.80;;;14.40;78.50;;;;;;5128094;28;20131;-62
2021/10/27 02:28:55;;;;;;;1.58;1.48;;;14.40;78.60;;;;;;5132601;28;20118;-63
2021/10/27 02:31:22;;;;;;;2.00;1.60;;;14.40;78.60;;;;;;5114056;28;20375;-61
2021/10/27 02:33:48;;;;;;;2.30;1.70;;;14.40;78.50;;;;;;5114358;28;20039;-64
2021/10/27 02:36:14;;;;;;;2.00;1.85;;;14.40;78.50;;;;;;5112441;28;20108;-64
2021/10/27 02:38:42;;;;;;;3.17;2.10;;;14.30;78.50;;;;;;5129175;28;20487;-64
2021/10/27 02:41:09;;;;;;;2.88;2.22;;;14.40;78.50;;;;;;5148581;27;20058;-64
2021/10/27 02:43:35;;;;;;;1.55;1.30;;;14.50;78.70;;;;;;5116294;28;20047;-64
2021/10/27 02:46:01;;;;;;;1.60;1.38;;;14.40;78.60;;;;;;5112402;28;20134;-63
2021/10/27 02:48:26;;;;;;;1.50;1.40;;;14.40;78.60;;;;;;5127536;28;20110;-64
2021/10/27 02:50:52;;;;;;;2.60;2.08;;;14.40;78.50;;;;;;5132530;27;20082;-64
2021/10/27 02:53:18;;;;;;;1.65;1.50;;;14.40;78.60;;;;;;5120270;27;20114;-63
2021/10/27 02:55:43;;;;;;;1.58;1.40;;;14.40;78.60;;;;;;5121040;27;20038;-63
2021/10/27 02:58:09;;;;;;;2.63;1.60;;;14.40;78.50;;;;;;5127187;27;20031;-64
2021/10/27 03:00:35;;;;;;;2.20;1.98;;;14.40;78.60;;;;;;5133687;27;20039;-64
2021/10/27 03:03:01;;;;;;;1.50;1.40;;;14.40;78.70;;;;;;5118924;27;20035;-64
2021/10/27 03:05:27;;;;;;;2.08;1.92;;;14.40;78.60;;;;;;5133925;27;20039;-63
2021/10/27 03:07:53;;;;;;;1.88;1.60;;;14.40;78.60;;;;;;5124266;27;20499;-64
2021/10/27 03:10:19;;;;;;;1.70;1.60;;;14.40;78.60;;;;;;5115039;28;20072;-64
2021/10/27 03:12:45;;;;;;;1.95;1.30;;;14.40;79.20;;;;;;5125436;27;20046;-65
2021/10/27 03:15:11;;;;;;;2.70;1.73;;;14.40;78.50;;;;;;5134346;27;20039;-65
2021/10/27 03:17:36;;;;;;;1.48;1.38;;;14.30;78.50;;;;;;5125984;27;20028;-64
2021/10/27 03:20:03;;;;;;;1.38;1.20;;;14.40;78.50;;;;;;5115190;28;20482;-64
2021/10/27 03:22:29;;;;;;;2.85;1.30;;;14.40;78.50;;;;;;5115047;28;20035;-63
2021/10/27 03:24:54;;;;;;;2.95;1.83;;;14.50;78.50;;;;;;5125660;27;20049;-63
2021/10/27 03:27:20;;;;;;;3.53;2.03;;;14.40;78.50;;;;;;5134142;27;20039;-64
2021/10/27 03:29:46;;;;;;;1.55;1.40;;;14.40;78.60;;;;;;5116993;27;20122;-64
2021/10/27 03:32:13;;;;;;;1.92;1.55;;;14.40;78.60;;;;;;5119523;27;20063;-64
2021/10/27 03:34:39;;;;;;;2.92;1.92;;;14.40;78.50;;;;;;5115345;28;20088;-61
2021/10/27 03:37:06;;;;;;;1.90;1.70;;;14.50;78.60;;;;;;5103581;27;20043;-62
2021/10/27 03:39:31;;;;;;;1.75;1.50;;;14.40;78.60;;;;;;5135039;27;20114;-64
2021/10/27 03:41:57;;;;;;;1.98;1.35;;;14.40;78.60;;;;;;5131577;27;20040;-61
2021/10/27 03:44:23;;;;;;;1.40;1.30;;;14.40;78.50;;;;;;5114893;28;20047;-61
2021/10/27 03:46:50;;;;;;;1.60;1.50;;;14.40;78.50;;;;;;5116240;27;20039;-63
2021/10/27 03:49:16;;;;;;;2.55;1.60;;;14.40;78.50;;;;;;5115083;28;20047;-60
2021/10/27 03:51:42;;;;;;;1.50;1.30;;;14.40;78.50;;;;;;5116421;27;20044;-62
2021/10/27 03:54:08;;;;;;;1.88;1.67;;;14.40;78.50;;;;;;5125631;27;20039;-61
2021/10/27 03:56:33;;;;;;;1.73;1.23;;;14.40;78.50;;;;;;5134500;27;20042;-62
2021/10/27 03:58:59;;;;;;;2.45;1.38;;;14.40;78.50;;;;;;5115617;27;20423;-63
2021/10/27 04:01:25;;;;;;;2.45;1.60;;;14.40;78.50;;;;;;5096368;28;20373;-62
2021/10/27 04:03:50;;;;;;;1.50;1.40;;;14.50;78.70;;;;;;5114522;27;20384;-61
2021/10/27 04:06:16;;;;;;;1.35;1.25;;;14.40;78.60;;;;;;5134611;27;20035;-60
2021/10/27 04:08:42;;;;;;;1.48;1.30;;;14.40;78.60;;;;;;5129293;27;20136;-59
2021/10/27 04:11:07;;;;;;;1.67;1.45;;;14.40;78.60;;;;;;5123527;27;20111;-63
2021/10/27 04:13:33;;;;;;;2.40;1.48;;;14.40;78.50;;;;;;5134172;27;20118;-63
2021/10/27 04:15:59;;;;;;;1.35;1.25;;;14.40;78.50;;;;;;5135001;27;20126;-63
2021/10/27 04:18:25;;;;;;;2.58;1.58;;;14.40;78.50;;;;;;5121757;27;20077;-58
2021/10/27 04:20:51;;;;;;;1.83;1.45;;;14.40;78.50;;;;;;5113978;28;20112;-59
2021/10/27 04:23:17;;;;;;;1.38;1.27;;;14.50;78.60;;;;;;5125892;27;20078;-63
2021/10/27 04:25:43;;;;;;;1.85;1.48;;;14.40;78.50;;;;;;5127451;27;20471;-61
2021/10/27 04:28:09;;;;;;;1.27;1.17;;;14.40;78.50;;;;;;5134319;27;20043;-61
2021/10/27 04:30:34;;;;;;;1.48;1.38;;;14.40;78.50;;;;;;5114037;27;20047;-63
2021/10/27 04:33:00;;;;;;;1.23;1.13;;;14.40;78.50;;;;;;5132739;27;20193;-58
2021/10/27 04:35:26;;;;;;;1.30;1.20;;;14.40;78.50;;;;;;5134151;27;20520;-60
2021/10/27 04:37:53;;;;;;;2.20;1.58;;;14.40;78.50;;;;;;5115425;27;20074;-62
2021/10/27 04:40:20;;;;;;;2.95;1.80;;;14.50;78.60;;;;;;5117619;27;20080;-64
2021/10/27 04:42:46;;;;;;;1.58;1.33;;;14.40;78.50;;;;;;5113639;28;20043;-64
2021/10/27 04:45:12;;;;;;;2.00;1.30;;;14.40;78.50;;;;;;5113036;28;20048;-61
2021/10/27 04:47:38;;;;;;;1.42;1.33;;;14.40;78.50;;;;;;5122474;27;20188;-63
2021/10/27 04:50:05;;;;;;;1.70;1.48;;;14.50;78.50;;;;;;5132598;27;20554;-63
2021/10/27 04:52:35;;;;;;;1.55;1.30;;;14.40;78.50;;;;;;5125190;27;20032;-59
2021/10/27 04:55:00;;;;;;;2.03;1.40;;;14.40;78.50;;;;;;5094803;28;20074;-63
2021/10/27 04:57:26;;;;;;;1.40;1.13;;;14.40;78.50;;;;;;5106839;27;20050;-63
2021/10/27 04:59:52;;;;;;;1.15;1.00;;;14.50;78.60;;;;;;5114856;27;20399;-63
2021/10/27 05:02:18;;;;;;;1.95;1.50;;;14.40;78.50;;;;;;5114107;27;20045;-65
2021/10/27 05:04:45;;;;;;;1.30;1.20;;;14.40;78.50;;;;;;5114047;27;20478;-61
2021/10/27 05:07:13;;;;;;;2.38;1.38;;;14.40;78.50;;;;;;5119540;27;20031;-64
2021/10/27 05:09:40;;;;;;;2.33;1.60;;;14.40;78.50;;;;;;5118956;27;20566;-63
2021/10/27 05:12:06;;;;;;;1.88;1.38;;;14.40;78.50;;;;;;5113873;27;20075;-63
2021/10/27 05:14:36;;;;;;;1.48;1.27;;;14.50;78.60;;;;;;5077503;28;20233;-60
2021/10/27 05:17:06;;;;;;;2.28;1.40;;;14.40;78.50;;;;;;5136069;27;20043;-60
2021/10/27 05:19:32;;;;;;;2.95;1.60;;;14.50;78.60;;;;;;5133431;27;20439;-63
2021/10/27 05:21:57;;;;;;;2.53;1.27;;;14.50;78.60;;;;;;5126912;27;20090;-63
2021/10/27 05:24:23;;;;;;;1.35;1.25;;;14.40;78.50;;;;;;5112999;28;20096;-62
2021/10/27 05:26:49;;;;;;;1.38;1.27;;;14.50;78.60;;;;;;5112674;28;20073;-60
2021/10/27 05:29:14;;;;;;;2.05;1.42;;;14.50;78.50;;;;;;5112833;28;20043;-63
2021/10/27 05:31:40;;;;;;;2.45;1.38;;;14.40;78.50;;;;;;5131316;27;20044;-64
2021/10/27 05:34:06;;;;;;;1.75;1.30;;;14.40;78.50;;;;;;5131483;27;20071;-63
2021/10/27 05:36:32;;;;;;;1.40;1.30;;;14.50;78.50;;;;;;5133262;27;20074;-63
2021/10/27 05:38:58;;;;;;;2.33;1.42;;;14.50;78.50;;;;;;5112874;28;20472;-63
2021/10/27 05:41:24;;;;;;;1.98;1.40;;;14.50;78.50;;;;;;5112694;28;20043;-63
2021/10/27 05:43:50;;;;;;;1.33;1.23;;;14.50;78.50;;;;;;5129183;28;20498;-61
2021/10/27 05:46:19;;;;;;;1.38;1.27;;;14.50;78.50;;;;;;5133303;28;20117;-58
2021/10/27 05:48:47;;;;;;;1.38;1.20;;;14.50;78.50;;;;;;5114133;28;20391;-64
2021/10/27 05:51:18;;;;;;;1.38;1.27;;;14.50;78.50;;;;;;5125616;28;20118;-60
2021/10/27 05:56:29;;;;;;;1.63;0.98;;;14.50;78.50;;;;;;5133325;28;20051;-62
2021/10/27 05:58:55;;;;;;;1.23;1.00;;;14.50;78.50;;;;;;5133455;28;20095;-61
2021/10/27 06:01:21;;;;;;;1.70;1.17;;;14.50;78.50;;;;;;5118484;28;20048;-63
2021/10/27 06:03:46;;;;;;;2.10;1.23;;;14.50;78.50;;;;;;5112210;28;20044;-59
2021/10/27 06:06:12;;;;;;;1.95;1.30;;;14.40;78.50;;;;;;5117751;28;20123;-60
2021/10/27 06:08:38;;;;;;;1.30;1.20;;;14.50;78.50;;;;;;5133270;28;20065;-63
2021/10/27 06:11:13;;;;;;;2.53;1.38;;;14.50;78.50;;;;;;5129424;28;20068;-64
2021/10/27 06:13:46;;;;;;;1.17;1.08;;;14.50;78.50;;;;;;5130066;28;20036;-64
2021/10/27 06:16:14;;;;;;;1.67;1.00;;;14.50;78.50;;;;;;5131156;28;20043;-59
2021/10/27 06:18:41;;;;;;;1.63;1.00;;;14.50;78.60;;;;;;5132174;28;20099;-64
2021/10/27 06:21:08;;;;;;;4.05;1.33;;;14.50;78.50;;;;;;5132565;28;20060;-64
2021/10/27 06:23:35;;;;;;;2.47;1.35;;;14.50;78.50;;;;;;5115308;28;20399;-63
2021/10/27 06:26:01;;;;;;;2.55;1.45;;;14.50;78.60;;;;;;5123008;27;20108;-64
2021/10/27 06:28:30;;;;;;;2.42;1.55;;;14.40;78.50;;;;;;5114262;28;20086;-64
2021/10/27 06:31:02;;;;;;;2.00;1.15;;;14.50;78.60;;;;;;5121401;27;20050;-61
2021/10/27 06:34:05;;;;;;;1.90;1.20;;;14.50;78.60;;;;;;5134327;27;20087;-64
2021/10/27 06:45:59;;;;;;;1.08;1.00;;;14.50;78.50;;;;;;5136471;27;20047;-65
2021/10/27 06:47:19;;;;;;;1.88;1.00;;;14.50;78.60;;;;;;5131285;27;20101;-58
2021/10/27 06:49:45;;;;;;;1.02;0.98;;;14.50;78.60;;;;;;5132822;27;20047;-64
2021/10/27 06:52:11;;;;;;;1.98;1.30;;;14.50;78.60;;;;;;5135776;27;20474;-62
2021/10/27 06:54:37;;;;;;;1.20;1.00;;;14.50;78.60;;;;;;5130314;27;20044;-64
2021/10/27 06:57:03;;;;;;;2.03;1.20;;;14.50;78.60;;;;;;5115311;28;20439;-64
2021/10/27 06:59:40;;;;;;;1.30;1.20;;;14.50;78.60;;;;;;5115349;28;20047;-60
2021/10/27 07:05:16;;;;;;;14.52;6.00;;;14.50;78.60;;;;;;5124680;27;20062;-60
2021/10/27 07:17:54;;;;;;;10.38;3.78;;;14.40;80.40;;;;;;5136373;27;20123;-63
2021/10/27 07:20:22;;;;;;;10.65;4.00;;;14.60;81.00;;;;;;5136030;27;20042;-62
2021/10/27 07:22:48;;;;;;;9.10;4.15;;;14.50;80.20;;;;;;5135407;27;20039;-61
2021/10/27 07:25:15;;;;;;;11.63;3.67;;;14.50;80.20;;;;;;5108620;27;20130;-63
2021/10/27 07:27:44;;;;;;;5.75;3.50;;;14.50;80.00;;;;;;5117166;27;20118;-64
2021/10/27 07:30:10;;;;;;;6.93;3.20;;;14.50;80.00;;;;;;5136040;27;20454;-63
2021/10/27 07:32:37;;;;;;;8.15;3.38;;;14.50;79.90;;;;;;5136148;27;20039;-63
2021/10/27 07:35:30;;;;;;;7.63;3.20;;;14.50;79.80;;;;;;5135789;27;20054;-62
2021/10/27 07:40:41;;;;;;;10.30;3.55;;;14.50;79.70;;;;;;5135580;27;20483;-63
2021/10/27 07:43:11;;;;;;;6.38;3.03;;;14.60;79.70;;;;;;5135810;27;20043;-63
2021/10/27 07:45:37;;;;;;;6.70;3.10;;;14.50;79.60;;;;;;5117010;27;20082;-63
2021/10/27 07:48:04;;;;;;;5.38;2.92;;;14.60;79.60;;;;;;5131762;27;20054;-63
2021/10/27 07:50:31;;;;;;;6.38;2.63;;;14.50;79.60;;;;;;5134664;27;20039;-63
2021/10/27 07:52:59;;;;;;;5.28;3.08;;;14.60;79.60;;;;;;5135528;27;20448;-63
2021/10/27 07:55:25;;;;;;;5.22;2.83;;;14.60;79.50;;;;;;5135018;27;20114;-63
2021/10/27 07:57:51;;;;;;;5.15;2.72;;;14.60;79.50;;;;;;5135328;27;20074;-64
2021/10/27 08:00:18;;;;;;;7.68;2.88;;;14.60;79.50;;;;;;5135667;27;20089;-63
2021/10/27 08:02:45;;;;;;;6.03;3.30;;;14.50;79.30;;;;;;5135543;27;20043;-64
2021/10/27 08:05:12;;;;;;;4.72;2.88;;;14.60;79.40;;;;;;5135475;27;20096;-64
2021/10/27 08:07:57;;;;;;;4.82;2.50;;;14.70;79.40;;;;;;5135121;27;20043;-64
2021/10/27 08:10:24;;;;;;;4.78;2.60;;;14.60;79.30;;;;;;5134651;27;20043;-63
2021/10/27 08:12:50;;;;;;;4.47;2.85;;;14.50;79.30;;;;;;5135012;27;20061;-62
2021/10/27 08:15:20;;;;;;;5.25;2.63;;;14.60;79.30;;;;;;5135127;27;20054;-64
2021/10/27 08:17:47;;;;;;;4.78;2.35;;;14.50;79.20;;;;;;5116487;27;20047;-64
2021/10/27 08:20:14;;;;;;;3.53;2.15;;;14.60;79.20;;;;;;5135086;27;20399;-64
2021/10/27 08:22:44;;;;;;;4.43;2.55;;;14.60;79.20;;;;;;5134474;27;20095;-64
2021/10/27 08:25:19;;;;;;;2.67;1.98;;;14.50;79.10;;;;;;5132817;27;20043;-64
2021/10/27 08:27:44;;;;;;;6.75;2.67;;;14.60;79.10;;;;;;5134656;27;20150;-64
2021/10/27 08:30:12;;;;;;;4.07;2.53;;;14.50;79.00;;;;;;5134160;27;20056;-63
2021/10/27 08:32:53;;;;;;;3.22;2.28;;;14.60;79.10;;;;;;5134493;27;20491;-64
2021/10/27 08:35:19;;;;;;;4.10;2.22;;;14.60;79.10;;;;;;5134549;27;20043;-64
2021/10/27 08:37:47;;;;;;;4.55;2.58;;;14.60;79.10;;;;;;5134891;27;20032;-64
2021/10/27 08:40:16;;;;;;;2.72;2.20;;;14.60;79.10;;;;;;5134592;27;20064;-64
2021/10/27 08:42:42;;;;;;;2.83;1.98;;;14.60;79.00;;;;;;5133821;27;20081;-64
2021/10/27 08:45:09;;;;;;;3.42;2.17;;;14.60;79.00;;;;;;5133692;27;20149;-64
2021/10/27 08:47:38;;;;;;;4.07;2.10;;;14.60;79.00;;;;;;5135093;27;20386;-64
2021/10/27 08:50:06;;;;;;;4.32;1.92;;;14.60;79.00;;;;;;5133723;27;20050;-63
2021/10/27 08:52:32;;;;;;;3.83;2.10;;;14.60;78.90;;;;;;5134409;27;20043;-64
2021/10/27 08:54:58;;;;;;;2.25;1.90;;;14.60;78.90;;;;;;5115739;27;20081;-63
2021/10/27 08:57:24;;;;;;;2.55;1.95;;;14.60;78.90;;;;;;5133797;27;20035;-64
2021/10/27 10:06:06;;;;;;;2.50;1.77;;;14.60;78.80;;;;;;5056976;28;20060;-63
2021/10/27 10:08:32;;;;;;;1.88;1.45;;;14.50;78.70;;;;;;5057003;28;20044;-64
2021/10/27 10:10:58;;;;;;;2.25;1.50;;;14.60;78.80;;;;;;5073566;28;20125;-64
2021/10/27 10:13:24;;;;;;;1.70;1.30;;;14.60;78.80;;;;;;5073385;28;20190;-63
2021/10/27 10:15:51;;;;;;;1.88;1.52;;;14.60;78.70;;;;;;5036301;28;20045;-64
2021/10/27 10:18:22;;;;;;;1.65;1.30;;;14.60;78.70;;;;;;5053867;28;20505;-64
2021/10/27 10:20:54;;;;;;;2.05;1.35;;;14.60;78.70;;;;;;5036547;28;20084;-62
2021/10/27 10:23:22;;;;;;;2.00;1.60;;;14.60;78.70;;;;;;5053241;28;20057;-64
2021/10/27 10:25:52;;;;;;;1.63;1.30;;;14.60;78.70;;;;;;5053520;28;20136;-64
2021/10/27 10:28:25;;;;;;;1.63;1.48;;;14.60;78.70;;;;;;5065411;28;20419;-64
2021/10/27 10:30:56;;;;;;;1.55;1.40;;;14.60;78.70;;;;;;5116274;28;20126;-64
2021/10/27 10:33:45;;;;;;;1.40;1.27;;;14.60;78.70;;;;;;5116547;28;20063;-64
2021/10/27 10:36:28;;;;;;;1.65;1.40;;;14.60;78.60;;;;;;5116348;28;20043;-63
2021/10/27 10:59:22;;;;;;;1.40;1.27;;;14.70;78.60;;;;;;5115949;28;20047;-66
2021/10/27 11:41:54;;;;;;;1.30;1.20;;;14.70;78.60;;;;;;5115062;28;20043;-66
2021/10/27 11:44:48;;;;;;;1.88;1.27;;;14.70;78.60;;;;;;5114557;28;20040;-67
2021/10/27 11:47:45;;;;;;;1.23;1.13;;;14.70;78.50;;;;;;5114788;28;20039;-66
2021/10/27 11:50:13;;;;;;;1.38;1.20;;;14.70;78.50;;;;;;5115644;27;20127;-66
2021/10/27 11:52:41;;;;;;;1.10;1.00;;;14.60;78.60;;;;;;5095976;28;20052;-67
2021/10/27 11:55:10;;;;;;;2.13;1.30;;;14.60;78.50;;;;;;5114928;28;20040;-67
2021/10/27 11:57:38;;;;;;;1.00;1.00;;;14.70;78.50;;;;;;5096071;28;20089;-67
2021/10/27 12:00:23;;;;;;;1.10;1.00;;;14.70;78.50;;;;;;5115826;27;20384;-66
2021/10/27 12:02:54;;;;;;;1.02;0.93;;;14.70;78.50;;;;;;5113253;27;20043;-66
2021/10/27 12:05:32;;;;;;;0.95;0.95;;;14.70;78.60;;;;;;5107616;28;20506;-67
2021/10/27 12:14:00;;;;;;;1.00;1.00;;;14.70;78.50;;;;;;5113981;28;20130;-67
2021/10/27 12:19:31;;;;;;;1.10;1.00;;;14.70;78.50;;;;;;5031132;28;20045;-67
2021/10/27 12:21:59;;;;;;;1.35;1.08;;;14.70;78.50;;;;;;5037908;28;20127;-67
2021/10/27 12:24:28;;;;;;;1.10;1.00;;;14.70;78.50;;;;;;5048479;28;20053;-67
2021/10/27 12:27:08;;;;;;;1.20;0.90;;;14.70;78.50;;;;;;5050402;28;20084;-66
2021/10/27 12:29:36;;;;;;;1.20;1.10;;;14.70;78.50;;;;;;5050713;28;20088;-67
2021/10/27 12:32:15;;;;;;;1.23;1.00;;;14.70;78.50;;;;;;5050006;28;20044;-66
2021/10/27 12:34:48;;;;;;;1.30;1.00;;;14.70;78.40;;;;;;5047369;28;20451;-67
2021/10/27 12:37:32;;;;;;;1.38;1.20;;;14.70;78.40;;;;;;5050589;28;20049;-67
2021/10/27 12:43:10;;;;;;;1.10;1.00;;;14.70;78.30;;;;;;5033862;28;20140;-67
2021/10/27 12:45:47;;;;;;;1.73;1.10;;;14.80;78.40;;;;;;5050146;28;20077;-67
2021/10/27 12:48:34;;;;;;;1.02;0.93;;;14.70;78.40;;;;;;5049853;28;20056;-67
2021/10/27 12:51:11;;;;;;;1.23;1.02;;;14.70;78.40;;;;;;5033842;28;20053;-67
2021/10/27 12:53:39;;;;;;;1.08;1.02;;;14.80;78.50;;;;;;5089231;27;20135;-67
2021/10/27 12:56:07;;;;;;;1.38;1.00;;;14.70;78.40;;;;;;5114194;27;20058;-66
2021/10/27 12:58:35;;;;;;;0.80;0.80;;;14.70;78.40;;;;;;5119816;27;20069;-66
2021/10/27 13:13:52;;;;;;;1.17;0.80;;;14.70;78.40;;;;;;5110109;27;20046;-66
2021/10/27 13:31:55;;;;;;;1.00;0.82;;;14.80;78.50;;;;;;5107745;28;20058;-64
2021/10/27 13:34:21;;;;;;;2.50;1.00;;;14.80;78.40;;;;;;5110944;27;20035;-65
2021/10/27 13:36:47;;;;;;;0.90;0.90;;;14.70;78.30;;;;;;5110111;28;20407;-67
2021/10/27 13:39:12;;;;;;;1.35;0.95;;;14.90;78.40;;;;;;5110946;28;20047;-66
2021/10/27 13:41:38;;;;;;;0.80;0.80;;;14.80;78.40;;;;;;5111035;28;20047;-67
2021/10/27 13:44:10;;;;;;;1.00;0.90;;;14.80;78.40;;;;;;5092191;28;20083;-65
2021/10/27 13:46:54;;;;;;;0.80;0.80;;;14.80;78.30;;;;;;5092807;28;20039;-67
2021/10/27 14:08:57;;;;;;;1.90;1.50;;;14.80;78.80;;;;;;5032098;28;20102;-59
2021/10/27 15:21:16;;;;;;;1.13;0.90;;;14.80;78.40;;;;;;5131911;27;20482;-59
2021/10/27 15:29:18;;;;;;;1.65;1.10;;;14.90;78.40;;;;;;5135714;27;20043;-58
2021/10/27 15:37:19;;;;;;;0.98;0.98;;;14.90;78.40;;;;;;5131379;27;20505;-60
2021/10/27 15:45:18;;;;;;;1.10;1.00;;;14.80;78.40;;;;;;5066443;28;20136;-59
2021/10/27 15:52:55;;;;;;;1.42;1.02;;;14.90;78.40;;;;;;5071651;28;20090;-59
2021/10/27 15:55:20;;;;;;;1.00;0.90;;;14.90;78.40;;;;;;5071807;28;20111;-60
2021/10/27 15:57:46;;;;;;;1.65;0.90;;;14.80;78.40;;;;;;5055155;28;20045;-60
2021/10/27 16:00:13;;;;;;;0.95;0.80;;;14.90;79.00;;;;;;5071164;28;20055;-59
2021/10/27 16:02:38;;;;;;;0.77;0.77;;;14.90;78.40;;;;;;5071323;28;20037;-59
2021/10/27 16:05:07;;;;;;;0.88;0.88;;;14.90;78.40;;;;;;5071353;28;20484;-60
2021/10/27 16:07:34;;;;;;;2.15;1.10;;;14.90;78.40;;;;;;5054635;28;20099;-59
2021/10/27 16:10:12;;;;;;;1.75;0.90;;;14.90;78.40;;;;;;5071681;28;20056;-59
2021/10/27 16:12:37;;;;;;;1.00;0.90;;;14.90;78.40;;;;;;5071524;28;20056;-58
2021/10/27 16:15:04;;;;;;;1.95;1.23;;;14.90;78.40;;;;;;5054911;28;20479;-61
2021/10/27 16:17:31;;;;;;;1.35;0.80;;;14.90;78.40;;;;;;5071571;28;20044;-59
2021/10/27 16:19:57;;;;;;;1.15;0.90;;;14.90;78.40;;;;;;5116906;27;20051;-58
2021/10/27 16:22:23;;;;;;;1.38;1.10;;;14.90;78.40;;;;;;5134753;27;20047;-59
2021/10/27 16:24:49;;;;;;;0.80;0.80;;;14.90;78.40;;;;;;5135194;27;20039;-59
2021/10/27 16:27:15;;;;;;;0.98;0.80;;;14.90;78.40;;;;;;5135095;27;20041;-61
2021/10/27 16:29:40;;;;;;;1.38;1.27;;;14.90;78.40;;;;;;5116297;27;20376;-61
2021/10/27 16:32:07;;;;;;;0.60;0.60;;;14.90;78.40;;;;;;5134677;27;20040;-58
2021/10/27 16:34:33;;;;;;;0.75;0.68;;;14.90;78.40;;;;;;5134449;27;20074;-61
2021/10/27 16:36:58;;;;;;;1.35;0.90;;;15.00;78.50;;;;;;5134429;27;20066;-60
2021/10/27 16:39:24;;;;;;;0.88;0.65;;;14.90;78.40;;;;;;5134614;27;20833;-59
2021/10/27 16:41:50;;;;;;;0.70;0.70;;;14.90;78.40;;;;;;5134313;27;20488;-58
2021/10/27 16:44:16;;;;;;;0.82;0.70;;;14.90;78.40;;;;;;5134301;27;20042;-59
2021/10/27 16:46:41;;;;;;;1.17;1.08;;;14.90;78.40;;;;;;5134215;27;20387;-60
2021/10/27 16:49:07;;;;;;;0.77;0.73;;;14.90;78.40;;;;;;5134245;27;20088;-59
2021/10/27 16:51:34;;;;;;;0.90;0.90;;;14.90;78.40;;;;;;5134150;27;20073;-60
2021/10/27 16:54:00;;;;;;;0.80;0.80;;;15.00;78.50;;;;;;5133806;27;20039;-61
2021/10/27 16:56:28;;;;;;;0.88;0.70;;;14.90;78.40;;;;;;5115270;27;20085;-59
2021/10/27 16:58:54;;;;;;;0.90;0.70;;;14.90;78.40;;;;;;5134564;27;20047;-60
2021/10/27 17:01:19;;;;;;;0.82;0.80;;;14.90;78.40;;;;;;5134304;27;20433;-61
2021/10/27 17:03:45;;;;;;;0.88;0.70;;;14.90;78.40;;;;;;5115691;27;20047;-61
2021/10/27 17:06:11;;;;;;;0.90;0.90;;;14.90;78.40;;;;;;5114955;27;20400;-60
2021/10/27 17:08:37;;;;;;;0.90;0.90;;;14.90;78.40;;;;;;5134161;27;20376;-58
2021/10/27 17:11:04;;;;;;;0.70;0.70;;;14.90;78.40;;;;;;5132944;27;20039;-60
2021/10/27 17:13:31;;;;;;;0.82;0.82;;;14.90;78.40;;;;;;5126673;27;20394;-57
2021/10/27 17:15:57;;;;;;;1.17;0.93;;;14.90;78.40;;;;;;5135140;27;20043;-57
2021/10/27 17:18:23;;;;;;;1.17;0.88;;;14.90;78.40;;;;;;5133402;27;20487;-57
2021/10/27 17:20:49;;;;;;;1.05;0.80;;;14.90;78.40;;;;;;5132892;27;20122;-59
2021/10/27 17:23:26;;;;;;;0.90;0.90;;;14.90;78.40;;;;;;5132738;27;20407;-58
2021/10/27 17:25:52;;;;;;;1.35;1.00;;;14.90;78.50;;;;;;5133476;27;20046;-59
2021/10/27 17:28:18;;;;;;;1.63;0.90;;;14.90;78.50;;;;;;5132928;27;20039;-59
2021/10/27 17:30:47;;;;;;;1.67;1.00;;;15.00;78.50;;;;;;5135914;27;20180;-60
2021/10/27 17:33:12;;;;;;;2.78;1.38;;;14.90;78.50;;;;;;5152804;27;20518;-58
2021/10/27 17:35:38;;;;;;;1.30;0.80;;;14.90;78.50;;;;;;5154249;27;20038;-61
2021/10/27 17:38:04;;;;;;;1.45;1.10;;;14.90;78.50;;;;;;5153900;27;20160;-59
2021/10/27 17:40:34;;;;;;;0.75;0.75;;;14.90;78.50;;;;;;5154075;27;20047;-62
2021/10/27 17:43:01;;;;;;;1.00;0.95;;;14.90;78.50;;;;;;5141863;27;20059;-59
2021/10/27 17:45:38;;;;;;;1.20;0.75;;;14.90;78.50;;;;;;5132844;28;20054;-58
2021/10/27 17:48:21;;;;;;;0.77;0.77;;;14.90;78.50;;;;;;5114498;28;20043;-60
2021/10/27 17:58:30;;;;;;;;;;;14.90;78.50;;;;;;5133332;28;20376;-60
2021/10/27 18:00:57;;;;;;;0.77;0.70;;;14.90;78.40;;;;;;5132932;28;20379;-62
2021/10/27 18:03:23;;;;;;;1.08;0.98;;;14.90;78.60;;;;;;5133062;28;20046;-59